sensor_id;sensor_type;location;lat;lon;timestamp;P1;durP1;ratioP1;P2;durP2;ratioP2
34805;SDS011;65084;42.196;25.326;2023-04-25T00:00:07;2.08;;;1.98;;
34805;SDS011;65084;42.196;25.326;2023-04-25T00:02:35;2.13;;;1.73;;
34805;SDS011;65084;42.196;25.326;2023-04-25T00:05:02;3.05;;;2.40;;
34805;SDS011;65084;42.196;25.326;2023-04-25T00:07:30;1.95;;;1.73;;
34805;SDS011;65084;42.196;25.326;2023-04-25T00:09:57;2.33;;;2.22;;
34805;SDS011;65084;42.196;25.326;2023-04-25T00:12:26;2.42;;;2.22;;
34805;SDS011;65084;42.196;25.326;2023-04-25T00:14:54;2.08;;;1.98;;
34805;SDS011;65084;42.196;25.326;2023-04-25T00:17:23;2.03;;;1.92;;
34805;SDS011;65084;42.196;25.326;2023-04-25T00:19:50;2.53;;;2.05;;
34805;SDS011;65084;42.196;25.326;2023-04-25T00:22:18;4.95;;;1.60;;
34805;SDS011;65084;42.196;25.326;2023-04-25T00:24:45;2.33;;;1.80;;
34805;SDS011;65084;42.196;25.326;2023-04-25T00:27:12;1.92;;;1.65;;
34805;SDS011;65084;42.196;25.326;2023-04-25T00:29:41;2.20;;;2.00;;
34805;SDS011;65084;42.196;25.326;2023-04-25T00:32:08;2.00;;;1.88;;
34805;SDS011;65084;42.196;25.326;2023-04-25T00:34:36;2.05;;;1.95;;
34805;SDS011;65084;42.196;25.326;2023-04-25T00:37:03;1.90;;;1.80;;
34805;SDS011;65084;42.196;25.326;2023-04-25T00:39:31;1.85;;;1.75;;
34805;SDS011;65084;42.196;25.326;2023-04-25T00:41:58;4.97;;;2.20;;
34805;SDS011;65084;42.196;25.326;2023-04-25T00:44:25;2.40;;;2.20;;
34805;SDS011;65084;42.196;25.326;2023-04-25T00:46:55;2.20;;;2.10;;
34805;SDS011;65084;42.196;25.326;2023-04-25T00:49:23;2.25;;;2.05;;
34805;SDS011;65084;42.196;25.326;2023-04-25T00:51:50;2.33;;;2.20;;
34805;SDS011;65084;42.196;25.326;2023-04-25T00:54:17;2.38;;;2.17;;
34805;SDS011;65084;42.196;25.326;2023-04-25T00:56:45;2.72;;;2.38;;
34805;SDS011;65084;42.196;25.326;2023-04-25T00:59:12;2.75;;;2.45;;
34805;SDS011;65084;42.196;25.326;2023-04-25T01:01:40;3.58;;;2.80;;
34805;SDS011;65084;42.196;25.326;2023-04-25T01:04:10;10.10;;;3.10;;
34805;SDS011;65084;42.196;25.326;2023-04-25T01:06:37;3.20;;;3.00;;
34805;SDS011;65084;42.196;25.326;2023-04-25T01:09:04;3.78;;;3.22;;
34805;SDS011;65084;42.196;25.326;2023-04-25T01:11:32;3.28;;;3.08;;
34805;SDS011;65084;42.196;25.326;2023-04-25T01:14:00;6.05;;;3.47;;
34805;SDS011;65084;42.196;25.326;2023-04-25T01:16:27;4.30;;;3.90;;
34805;SDS011;65084;42.196;25.326;2023-04-25T01:18:55;4.93;;;4.47;;
34805;SDS011;65084;42.196;25.326;2023-04-25T01:21:24;4.80;;;4.40;;
34805;SDS011;65084;42.196;25.326;2023-04-25T01:23:53;5.85;;;4.40;;
34805;SDS011;65084;42.196;25.326;2023-04-25T01:26:21;5.13;;;4.63;;
34805;SDS011;65084;42.196;25.326;2023-04-25T01:28:48;5.93;;;4.53;;
34805;SDS011;65084;42.196;25.326;2023-04-25T01:31:16;7.43;;;4.43;;
34805;SDS011;65084;42.196;25.326;2023-04-25T01:33:43;4.32;;;4.03;;
34805;SDS011;65084;42.196;25.326;2023-04-25T01:36:11;4.75;;;4.35;;
34805;SDS011;65084;42.196;25.326;2023-04-25T01:38:41;6.00;;;4.53;;
34805;SDS011;65084;42.196;25.326;2023-04-25T01:41:09;7.65;;;4.60;;
34805;SDS011;65084;42.196;25.326;2023-04-25T01:43:36;5.35;;;4.47;;
34805;SDS011;65084;42.196;25.326;2023-04-25T01:46:04;7.65;;;5.03;;
34805;SDS011;65084;42.196;25.326;2023-04-25T01:48:31;7.25;;;5.05;;
34805;SDS011;65084;42.196;25.326;2023-04-25T01:50:58;5.50;;;4.90;;
34805;SDS011;65084;42.196;25.326;2023-04-25T01:53:26;6.38;;;4.28;;
34805;SDS011;65084;42.196;25.326;2023-04-25T01:55:54;7.07;;;4.53;;
34805;SDS011;65084;42.196;25.326;2023-04-25T01:58:22;5.05;;;4.38;;
34805;SDS011;65084;42.196;25.326;2023-04-25T02:00:49;5.88;;;4.20;;
34805;SDS011;65084;42.196;25.326;2023-04-25T02:03:16;5.47;;;4.88;;
34805;SDS011;65084;42.196;25.326;2023-04-25T02:05:43;4.78;;;4.38;;
34805;SDS011;65084;42.196;25.326;2023-04-25T02:08:11;5.32;;;4.75;;
34805;SDS011;65084;42.196;25.326;2023-04-25T02:10:38;4.88;;;4.40;;
34805;SDS011;65084;42.196;25.326;2023-04-25T02:13:07;5.05;;;4.50;;
34805;SDS011;65084;42.196;25.326;2023-04-25T02:15:34;5.82;;;5.07;;
34805;SDS011;65084;42.196;25.326;2023-04-25T02:18:01;6.57;;;4.80;;
34805;SDS011;65084;42.196;25.326;2023-04-25T02:20:29;4.88;;;4.28;;
34805;SDS011;65084;42.196;25.326;2023-04-25T02:22:56;5.55;;;4.72;;
34805;SDS011;65084;42.196;25.326;2023-04-25T02:25:24;5.90;;;4.63;;
34805;SDS011;65084;42.196;25.326;2023-04-25T02:27:51;6.03;;;5.15;;
34805;SDS011;65084;42.196;25.326;2023-04-25T02:30:20;5.22;;;4.05;;
34805;SDS011;65084;42.196;25.326;2023-04-25T02:32:47;5.30;;;4.78;;
34805;SDS011;65084;42.196;25.326;2023-04-25T02:35:14;4.55;;;4.25;;
34805;SDS011;65084;42.196;25.326;2023-04-25T02:37:42;8.00;;;5.03;;
34805;SDS011;65084;42.196;25.326;2023-04-25T02:40:09;5.85;;;4.82;;
34805;SDS011;65084;42.196;25.326;2023-04-25T02:42:37;7.78;;;4.97;;
34805;SDS011;65084;42.196;25.326;2023-04-25T02:45:04;5.50;;;4.97;;
34805;SDS011;65084;42.196;25.326;2023-04-25T02:47:33;4.88;;;4.47;;
34805;SDS011;65084;42.196;25.326;2023-04-25T02:50:00;5.10;;;4.70;;
34805;SDS011;65084;42.196;25.326;2023-04-25T02:52:28;6.05;;;4.70;;
34805;SDS011;65084;42.196;25.326;2023-04-25T02:54:55;5.43;;;4.40;;
34805;SDS011;65084;42.196;25.326;2023-04-25T02:57:22;5.00;;;4.57;;
34805;SDS011;65084;42.196;25.326;2023-04-25T02:59:50;4.72;;;4.43;;
34805;SDS011;65084;42.196;25.326;2023-04-25T03:02:17;6.25;;;4.22;;
34805;SDS011;65084;42.196;25.326;2023-04-25T03:04:46;4.38;;;4.00;;
34805;SDS011;65084;42.196;25.326;2023-04-25T03:07:13;4.30;;;4.00;;
34805;SDS011;65084;42.196;25.326;2023-04-25T03:09:40;5.03;;;4.53;;
34805;SDS011;65084;42.196;25.326;2023-04-25T03:12:07;4.50;;;4.13;;
34805;SDS011;65084;42.196;25.326;2023-04-25T03:14:35;4.97;;;4.47;;
34805;SDS011;65084;42.196;25.326;2023-04-25T03:17:02;4.80;;;4.28;;
34805;SDS011;65084;42.196;25.326;2023-04-25T03:19:29;4.95;;;4.53;;
34805;SDS011;65084;42.196;25.326;2023-04-25T03:21:58;4.90;;;4.50;;
34805;SDS011;65084;42.196;25.326;2023-04-25T03:24:25;8.52;;;4.47;;
34805;SDS011;65084;42.196;25.326;2023-04-25T03:26:53;11.75;;;4.40;;
34805;SDS011;65084;42.196;25.326;2023-04-25T03:29:20;4.78;;;4.38;;
34805;SDS011;65084;42.196;25.326;2023-04-25T03:31:51;4.72;;;4.30;;
34805;SDS011;65084;42.196;25.326;2023-04-25T03:34:18;24.25;;;4.47;;
34805;SDS011;65084;42.196;25.326;2023-04-25T03:36:46;15.00;;;4.60;;
34805;SDS011;65084;42.196;25.326;2023-04-25T03:39:15;6.45;;;4.63;;
34805;SDS011;65084;42.196;25.326;2023-04-25T03:41:42;15.85;;;5.25;;
34805;SDS011;65084;42.196;25.326;2023-04-25T03:44:09;7.68;;;4.35;;
34805;SDS011;65084;42.196;25.326;2023-04-25T03:46:37;4.70;;;4.25;;
34805;SDS011;65084;42.196;25.326;2023-04-25T03:49:04;5.85;;;4.53;;
34805;SDS011;65084;42.196;25.326;2023-04-25T03:51:31;9.77;;;6.22;;
34805;SDS011;65084;42.196;25.326;2023-04-25T03:53:59;7.72;;;6.38;;
34805;SDS011;65084;42.196;25.326;2023-04-25T03:56:27;8.55;;;7.55;;
34805;SDS011;65084;42.196;25.326;2023-04-25T03:58:55;12.57;;;8.02;;
34805;SDS011;65084;42.196;25.326;2023-04-25T04:01:22;14.75;;;8.18;;
34805;SDS011;65084;42.196;25.326;2023-04-25T04:03:50;10.32;;;8.20;;
34805;SDS011;65084;42.196;25.326;2023-04-25T04:06:17;11.52;;;9.00;;
34805;SDS011;65084;42.196;25.326;2023-04-25T04:08:46;10.68;;;8.63;;
34805;SDS011;65084;42.196;25.326;2023-04-25T04:11:13;14.43;;;8.88;;
34805;SDS011;65084;42.196;25.326;2023-04-25T04:13:42;10.65;;;9.15;;
34805;SDS011;65084;42.196;25.326;2023-04-25T04:16:09;11.93;;;8.77;;
34805;SDS011;65084;42.196;25.326;2023-04-25T04:18:37;16.50;;;9.23;;
34805;SDS011;65084;42.196;25.326;2023-04-25T04:21:04;14.15;;;9.38;;
34805;SDS011;65084;42.196;25.326;2023-04-25T04:23:31;16.55;;;10.63;;
34805;SDS011;65084;42.196;25.326;2023-04-25T04:25:59;15.35;;;12.07;;
34805;SDS011;65084;42.196;25.326;2023-04-25T04:28:26;18.52;;;13.65;;
34805;SDS011;65084;42.196;25.326;2023-04-25T04:30:55;19.20;;;13.20;;
34805;SDS011;65084;42.196;25.326;2023-04-25T04:33:22;19.83;;;13.55;;
34805;SDS011;65084;42.196;25.326;2023-04-25T04:35:50;13.65;;;11.63;;
34805;SDS011;65084;42.196;25.326;2023-04-25T04:38:18;14.38;;;9.93;;
34805;SDS011;65084;42.196;25.326;2023-04-25T04:40:46;14.05;;;10.40;;
34805;SDS011;65084;42.196;25.326;2023-04-25T04:43:14;12.88;;;9.88;;
34805;SDS011;65084;42.196;25.326;2023-04-25T04:45:42;23.27;;;10.43;;
34805;SDS011;65084;42.196;25.326;2023-04-25T04:48:11;15.07;;;9.77;;
34805;SDS011;65084;42.196;25.326;2023-04-25T04:50:39;22.80;;;9.85;;
34805;SDS011;65084;42.196;25.326;2023-04-25T04:53:06;20.45;;;10.13;;
34805;SDS011;65084;42.196;25.326;2023-04-25T04:55:34;26.67;;;10.25;;
34805;SDS011;65084;42.196;25.326;2023-04-25T04:58:01;16.67;;;10.88;;
34805;SDS011;65084;42.196;25.326;2023-04-25T05:00:29;14.57;;;10.35;;
34805;SDS011;65084;42.196;25.326;2023-04-25T05:02:57;15.65;;;9.07;;
34805;SDS011;65084;42.196;25.326;2023-04-25T05:05:25;16.13;;;10.07;;
34805;SDS011;65084;42.196;25.326;2023-04-25T05:07:53;18.75;;;8.82;;
34805;SDS011;65084;42.196;25.326;2023-04-25T05:10:20;16.77;;;7.97;;
34805;SDS011;65084;42.196;25.326;2023-04-25T05:12:48;12.05;;;8.38;;
34805;SDS011;65084;42.196;25.326;2023-04-25T05:15:15;24.95;;;9.07;;
34805;SDS011;65084;42.196;25.326;2023-04-25T05:17:42;15.40;;;8.75;;
34805;SDS011;65084;42.196;25.326;2023-04-25T05:20:10;13.10;;;8.88;;
34805;SDS011;65084;42.196;25.326;2023-04-25T05:22:40;15.90;;;10.50;;
34805;SDS011;65084;42.196;25.326;2023-04-25T05:25:08;15.25;;;9.98;;
34805;SDS011;65084;42.196;25.326;2023-04-25T05:27:35;13.05;;;9.32;;
34805;SDS011;65084;42.196;25.326;2023-04-25T05:30:03;9.48;;;8.45;;
34805;SDS011;65084;42.196;25.326;2023-04-25T05:32:31;12.75;;;8.20;;
34805;SDS011;65084;42.196;25.326;2023-04-25T05:34:58;8.90;;;7.78;;
34805;SDS011;65084;42.196;25.326;2023-04-25T05:37:25;10.63;;;8.20;;
34805;SDS011;65084;42.196;25.326;2023-04-25T05:39:54;9.07;;;8.20;;
34805;SDS011;65084;42.196;25.326;2023-04-25T05:42:21;11.20;;;7.88;;
34805;SDS011;65084;42.196;25.326;2023-04-25T05:44:48;10.82;;;7.65;;
34805;SDS011;65084;42.196;25.326;2023-04-25T05:47:16;8.60;;;7.70;;
34805;SDS011;65084;42.196;25.326;2023-04-25T05:49:44;9.73;;;7.97;;
34805;SDS011;65084;42.196;25.326;2023-04-25T05:52:11;12.70;;;7.50;;
34805;SDS011;65084;42.196;25.326;2023-04-25T05:54:38;10.05;;;8.02;;
34805;SDS011;65084;42.196;25.326;2023-04-25T05:57:07;8.77;;;7.72;;
34805;SDS011;65084;42.196;25.326;2023-04-25T05:59:34;9.25;;;7.95;;
34805;SDS011;65084;42.196;25.326;2023-04-25T06:02:02;10.85;;;8.18;;
34805;SDS011;65084;42.196;25.326;2023-04-25T06:04:29;8.35;;;7.35;;
34805;SDS011;65084;42.196;25.326;2023-04-25T06:06:56;9.57;;;7.30;;
34805;SDS011;65084;42.196;25.326;2023-04-25T06:09:23;8.00;;;7.25;;
34805;SDS011;65084;42.196;25.326;2023-04-25T06:11:51;10.23;;;7.70;;
34805;SDS011;65084;42.196;25.326;2023-04-25T06:14:19;8.25;;;6.97;;
34805;SDS011;65084;42.196;25.326;2023-04-25T06:16:47;11.18;;;7.45;;
34805;SDS011;65084;42.196;25.326;2023-04-25T06:19:15;8.25;;;7.47;;
34805;SDS011;65084;42.196;25.326;2023-04-25T06:21:43;8.63;;;7.47;;
34805;SDS011;65084;42.196;25.326;2023-04-25T06:24:11;10.07;;;7.00;;
34805;SDS011;65084;42.196;25.326;2023-04-25T06:26:38;9.95;;;7.68;;
34805;SDS011;65084;42.196;25.326;2023-04-25T06:29:05;9.05;;;7.25;;
34805;SDS011;65084;42.196;25.326;2023-04-25T06:31:34;8.20;;;7.35;;
34805;SDS011;65084;42.196;25.326;2023-04-25T06:34:01;10.65;;;7.07;;
34805;SDS011;65084;42.196;25.326;2023-04-25T06:36:28;7.45;;;6.75;;
34805;SDS011;65084;42.196;25.326;2023-04-25T06:38:56;8.60;;;7.28;;
34805;SDS011;65084;42.196;25.326;2023-04-25T06:41:23;9.40;;;7.07;;
34805;SDS011;65084;42.196;25.326;2023-04-25T06:43:50;11.60;;;7.10;;
34805;SDS011;65084;42.196;25.326;2023-04-25T06:46:17;15.80;;;7.20;;
34805;SDS011;65084;42.196;25.326;2023-04-25T06:48:46;9.75;;;6.50;;
34805;SDS011;65084;42.196;25.326;2023-04-25T06:51:13;7.72;;;6.60;;
34805;SDS011;65084;42.196;25.326;2023-04-25T06:53:41;6.78;;;6.18;;
34805;SDS011;65084;42.196;25.326;2023-04-25T06:56:08;8.77;;;7.55;;
34805;SDS011;65084;42.196;25.326;2023-04-25T06:58:35;9.27;;;7.72;;
34805;SDS011;65084;42.196;25.326;2023-04-25T07:01:03;8.15;;;6.68;;
34805;SDS011;65084;42.196;25.326;2023-04-25T07:03:30;8.75;;;6.40;;
34805;SDS011;65084;42.196;25.326;2023-04-25T07:05:59;9.73;;;6.88;;
34805;SDS011;65084;42.196;25.326;2023-04-25T07:08:26;10.23;;;6.70;;
34805;SDS011;65084;42.196;25.326;2023-04-25T07:10:53;8.52;;;6.97;;
34805;SDS011;65084;42.196;25.326;2023-04-25T07:13:20;10.52;;;6.13;;
34805;SDS011;65084;42.196;25.326;2023-04-25T07:15:48;6.97;;;6.30;;
34805;SDS011;65084;42.196;25.326;2023-04-25T07:18:15;8.60;;;6.60;;
34805;SDS011;65084;42.196;25.326;2023-04-25T07:20:42;12.35;;;7.22;;
34805;SDS011;65084;42.196;25.326;2023-04-25T07:23:11;9.48;;;5.65;;
34805;SDS011;65084;42.196;25.326;2023-04-25T07:25:38;7.13;;;6.43;;
34805;SDS011;65084;42.196;25.326;2023-04-25T07:28:06;9.55;;;6.22;;
34805;SDS011;65084;42.196;25.326;2023-04-25T07:30:33;8.63;;;6.97;;
34805;SDS011;65084;42.196;25.326;2023-04-25T07:33:01;8.80;;;7.32;;
34805;SDS011;65084;42.196;25.326;2023-04-25T07:35:29;6.30;;;3.80;;
34805;SDS011;65084;42.196;25.326;2023-04-25T07:37:56;3.63;;;3.33;;
34805;SDS011;65084;42.196;25.326;2023-04-25T07:40:25;5.47;;;4.97;;
34805;SDS011;65084;42.196;25.326;2023-04-25T07:42:53;10.50;;;7.22;;
34805;SDS011;65084;42.196;25.326;2023-04-25T07:45:20;4.60;;;3.05;;
34805;SDS011;65084;42.196;25.326;2023-04-25T07:47:47;3.42;;;3.10;;
34805;SDS011;65084;42.196;25.326;2023-04-25T07:50:15;3.28;;;2.90;;
34805;SDS011;65084;42.196;25.326;2023-04-25T07:52:42;4.30;;;2.70;;
34805;SDS011;65084;42.196;25.326;2023-04-25T07:55:09;3.08;;;2.80;;
34805;SDS011;65084;42.196;25.326;2023-04-25T07:57:38;3.50;;;3.20;;
34805;SDS011;65084;42.196;25.326;2023-04-25T08:00:06;2.65;;;2.45;;
34805;SDS011;65084;42.196;25.326;2023-04-25T08:02:36;6.50;;;3.20;;
34805;SDS011;65084;42.196;25.326;2023-04-25T08:05:04;3.38;;;2.97;;
34805;SDS011;65084;42.196;25.326;2023-04-25T08:07:33;6.75;;;2.55;;
34805;SDS011;65084;42.196;25.326;2023-04-25T08:10:00;3.00;;;2.33;;
34805;SDS011;65084;42.196;25.326;2023-04-25T08:12:28;5.45;;;2.10;;
34805;SDS011;65084;42.196;25.326;2023-04-25T08:14:56;5.68;;;2.55;;
34805;SDS011;65084;42.196;25.326;2023-04-25T08:17:24;2.20;;;2.10;;
34805;SDS011;65084;42.196;25.326;2023-04-25T08:19:51;6.47;;;2.38;;
34805;SDS011;65084;42.196;25.326;2023-04-25T08:22:18;3.28;;;2.83;;
34805;SDS011;65084;42.196;25.326;2023-04-25T08:24:45;2.10;;;1.80;;
34805;SDS011;65084;42.196;25.326;2023-04-25T08:27:13;2.63;;;2.20;;
34805;SDS011;65084;42.196;25.326;2023-04-25T08:29:41;4.55;;;2.10;;
34805;SDS011;65084;42.196;25.326;2023-04-25T08:32:09;7.28;;;2.47;;
34805;SDS011;65084;42.196;25.326;2023-04-25T08:34:37;2.65;;;2.35;;
34805;SDS011;65084;42.196;25.326;2023-04-25T08:37:07;2.00;;;1.80;;
34805;SDS011;65084;42.196;25.326;2023-04-25T08:39:34;2.03;;;1.92;;
34805;SDS011;65084;42.196;25.326;2023-04-25T08:42:02;3.70;;;3.40;;
34805;SDS011;65084;42.196;25.326;2023-04-25T08:44:33;3.20;;;2.85;;
34805;SDS011;65084;42.196;25.326;2023-04-25T08:47:01;4.75;;;2.90;;
34805;SDS011;65084;42.196;25.326;2023-04-25T08:49:30;2.95;;;2.53;;
34805;SDS011;65084;42.196;25.326;2023-04-25T08:51:59;5.22;;;2.70;;
34805;SDS011;65084;42.196;25.326;2023-04-25T08:54:27;4.80;;;3.22;;
34805;SDS011;65084;42.196;25.326;2023-04-25T08:56:56;2.45;;;2.25;;
34805;SDS011;65084;42.196;25.326;2023-04-25T08:59:23;2.20;;;2.00;;
34805;SDS011;65084;42.196;25.326;2023-04-25T09:01:51;1.90;;;1.80;;
34805;SDS011;65084;42.196;25.326;2023-04-25T09:04:18;57.95;;;4.30;;
34805;SDS011;65084;42.196;25.326;2023-04-25T09:06:47;3.47;;;2.00;;
34805;SDS011;65084;42.196;25.326;2023-04-25T09:09:14;2.10;;;1.90;;
34805;SDS011;65084;42.196;25.326;2023-04-25T09:11:42;2.22;;;1.70;;
34805;SDS011;65084;42.196;25.326;2023-04-25T09:14:12;46.78;;;33.83;;
34805;SDS011;65084;42.196;25.326;2023-04-25T09:16:59;2.47;;;2.28;;
34805;SDS011;65084;42.196;25.326;2023-04-25T09:19:27;9.77;;;8.65;;
34805;SDS011;65084;42.196;25.326;2023-04-25T09:21:57;4.38;;;2.67;;
34805;SDS011;65084;42.196;25.326;2023-04-25T09:24:31;2.50;;;2.30;;
34805;SDS011;65084;42.196;25.326;2023-04-25T09:26:59;2.72;;;1.70;;
34805;SDS011;65084;42.196;25.326;2023-04-25T09:29:30;1.80;;;1.70;;
34805;SDS011;65084;42.196;25.326;2023-04-25T09:32:10;2.28;;;2.15;;
34805;SDS011;65084;42.196;25.326;2023-04-25T09:34:38;1.90;;;1.80;;
34805;SDS011;65084;42.196;25.326;2023-04-25T09:37:08;2.92;;;2.60;;
34805;SDS011;65084;42.196;25.326;2023-04-25T09:39:36;3.40;;;3.10;;
34805;SDS011;65084;42.196;25.326;2023-04-25T09:42:04;2.45;;;2.15;;
34805;SDS011;65084;42.196;25.326;2023-04-25T09:44:31;4.93;;;2.60;;
34805;SDS011;65084;42.196;25.326;2023-04-25T09:46:58;2.17;;;1.98;;
34805;SDS011;65084;42.196;25.326;2023-04-25T09:49:27;2.40;;;2.28;;
34805;SDS011;65084;42.196;25.326;2023-04-25T09:51:55;4.32;;;2.88;;
34805;SDS011;65084;42.196;25.326;2023-04-25T09:54:24;3.47;;;2.78;;
34805;SDS011;65084;42.196;25.326;2023-04-25T09:56:52;3.78;;;3.38;;
34805;SDS011;65084;42.196;25.326;2023-04-25T09:59:20;3.97;;;3.05;;
34805;SDS011;65084;42.196;25.326;2023-04-25T10:01:48;4.43;;;3.03;;
34805;SDS011;65084;42.196;25.326;2023-04-25T10:04:18;3.95;;;2.92;;
34805;SDS011;65084;42.196;25.326;2023-04-25T10:06:48;3.42;;;3.17;;
34805;SDS011;65084;42.196;25.326;2023-04-25T10:09:17;3.80;;;3.47;;
34805;SDS011;65084;42.196;25.326;2023-04-25T10:11:47;4.70;;;2.80;;
34805;SDS011;65084;42.196;25.326;2023-04-25T10:14:14;3.15;;;2.95;;
34805;SDS011;65084;42.196;25.326;2023-04-25T10:16:42;3.28;;;3.08;;
34805;SDS011;65084;42.196;25.326;2023-04-25T10:19:10;2.90;;;2.65;;
34805;SDS011;65084;42.196;25.326;2023-04-25T10:21:40;5.28;;;3.80;;
34805;SDS011;65084;42.196;25.326;2023-04-25T10:24:10;8.05;;;4.03;;
34805;SDS011;65084;42.196;25.326;2023-04-25T10:26:37;4.13;;;3.72;;
34805;SDS011;65084;42.196;25.326;2023-04-25T10:29:06;3.17;;;2.92;;
34805;SDS011;65084;42.196;25.326;2023-04-25T10:31:33;5.05;;;2.33;;
34805;SDS011;65084;42.196;25.326;2023-04-25T10:34:11;5.50;;;3.63;;
34805;SDS011;65084;42.196;25.326;2023-04-25T10:36:38;3.08;;;2.28;;
34805;SDS011;65084;42.196;25.326;2023-04-25T10:39:06;6.60;;;2.70;;
34805;SDS011;65084;42.196;25.326;2023-04-25T10:41:45;3.22;;;2.92;;
34805;SDS011;65084;42.196;25.326;2023-04-25T10:44:14;2.67;;;2.47;;
34805;SDS011;65084;42.196;25.326;2023-04-25T10:46:41;2.65;;;2.45;;
34805;SDS011;65084;42.196;25.326;2023-04-25T10:49:11;5.47;;;3.00;;
34805;SDS011;65084;42.196;25.326;2023-04-25T10:54:39;4.18;;;3.42;;
34805;SDS011;65084;42.196;25.326;2023-04-25T10:57:07;3.60;;;3.30;;
34805;SDS011;65084;42.196;25.326;2023-04-25T10:59:35;2.63;;;2.42;;
34805;SDS011;65084;42.196;25.326;2023-04-25T11:02:09;4.53;;;2.90;;
34805;SDS011;65084;42.196;25.326;2023-04-25T11:04:39;4.20;;;3.90;;
34805;SDS011;65084;42.196;25.326;2023-04-25T11:07:09;4.38;;;3.97;;
34805;SDS011;65084;42.196;25.326;2023-04-25T11:09:38;4.25;;;3.42;;
34805;SDS011;65084;42.196;25.326;2023-04-25T11:12:07;3.92;;;3.63;;
34805;SDS011;65084;42.196;25.326;2023-04-25T11:14:37;4.43;;;4.10;;
34805;SDS011;65084;42.196;25.326;2023-04-25T11:17:05;4.28;;;3.95;;
34805;SDS011;65084;42.196;25.326;2023-04-25T11:19:32;6.00;;;4.07;;
34805;SDS011;65084;42.196;25.326;2023-04-25T11:22:00;9.82;;;3.85;;
34805;SDS011;65084;42.196;25.326;2023-04-25T11:24:28;10.63;;;4.15;;
34805;SDS011;65084;42.196;25.326;2023-04-25T11:26:56;8.18;;;3.17;;
34805;SDS011;65084;42.196;25.326;2023-04-25T11:29:23;4.72;;;3.13;;
34805;SDS011;65084;42.196;25.326;2023-04-25T11:31:52;3.50;;;3.20;;
34805;SDS011;65084;42.196;25.326;2023-04-25T11:34:21;4.70;;;3.45;;
34805;SDS011;65084;42.196;25.326;2023-04-25T11:36:48;3.97;;;3.67;;
34805;SDS011;65084;42.196;25.326;2023-04-25T11:39:15;8.30;;;3.25;;
34805;SDS011;65084;42.196;25.326;2023-04-25T11:41:43;3.17;;;2.95;;
34805;SDS011;65084;42.196;25.326;2023-04-25T11:44:10;8.10;;;3.20;;
34805;SDS011;65084;42.196;25.326;2023-04-25T11:46:37;4.18;;;3.38;;
34805;SDS011;65084;42.196;25.326;2023-04-25T11:49:06;5.63;;;3.08;;
34805;SDS011;65084;42.196;25.326;2023-04-25T11:51:37;3.58;;;3.20;;
34805;SDS011;65084;42.196;25.326;2023-04-25T11:54:05;3.00;;;2.65;;
34805;SDS011;65084;42.196;25.326;2023-04-25T11:56:33;6.05;;;3.20;;
34805;SDS011;65084;42.196;25.326;2023-04-25T11:59:01;3.30;;;3.00;;
34805;SDS011;65084;42.196;25.326;2023-04-25T12:01:28;16.60;;;2.88;;
34805;SDS011;65084;42.196;25.326;2023-04-25T12:03:56;10.43;;;3.38;;
34805;SDS011;65084;42.196;25.326;2023-04-25T12:06:27;2.78;;;2.60;;
34805;SDS011;65084;42.196;25.326;2023-04-25T12:09:01;2.72;;;2.55;;
34805;SDS011;65084;42.196;25.326;2023-04-25T12:11:29;3.03;;;2.83;;
34805;SDS011;65084;42.196;25.326;2023-04-25T12:14:01;4.03;;;2.92;;
34805;SDS011;65084;42.196;25.326;2023-04-25T12:16:29;2.45;;;2.25;;
34805;SDS011;65084;42.196;25.326;2023-04-25T12:18:57;2.80;;;2.42;;
34805;SDS011;65084;42.196;25.326;2023-04-25T12:21:29;8.50;;;2.83;;
34805;SDS011;65084;42.196;25.326;2023-04-25T12:24:07;5.10;;;2.55;;
34805;SDS011;65084;42.196;25.326;2023-04-25T12:26:45;3.85;;;2.47;;
34805;SDS011;65084;42.196;25.326;2023-04-25T12:29:15;5.47;;;2.25;;
34805;SDS011;65084;42.196;25.326;2023-04-25T12:31:42;6.93;;;2.25;;
34805;SDS011;65084;42.196;25.326;2023-04-25T12:34:10;2.42;;;2.00;;
34805;SDS011;65084;42.196;25.326;2023-04-25T12:36:38;5.15;;;2.67;;
34805;SDS011;65084;42.196;25.326;2023-04-25T12:39:05;3.40;;;2.10;;
34805;SDS011;65084;42.196;25.326;2023-04-25T12:41:33;5.25;;;2.42;;
34805;SDS011;65084;42.196;25.326;2023-04-25T12:44:00;3.10;;;2.13;;
34805;SDS011;65084;42.196;25.326;2023-04-25T12:46:27;2.00;;;1.83;;
34805;SDS011;65084;42.196;25.326;2023-04-25T12:48:55;9.20;;;1.92;;
34805;SDS011;65084;42.196;25.326;2023-04-25T12:51:22;7.93;;;2.13;;
34805;SDS011;65084;42.196;25.326;2023-04-25T12:53:51;3.47;;;2.20;;
34805;SDS011;65084;42.196;25.326;2023-04-25T12:56:19;2.17;;;1.70;;
34805;SDS011;65084;42.196;25.326;2023-04-25T12:58:46;1.92;;;1.83;;
34805;SDS011;65084;42.196;25.326;2023-04-25T13:01:14;2.10;;;2.00;;
34805;SDS011;65084;42.196;25.326;2023-04-25T13:03:41;3.47;;;2.10;;
34805;SDS011;65084;42.196;25.326;2023-04-25T13:06:08;1.80;;;1.70;;
34805;SDS011;65084;42.196;25.326;2023-04-25T13:08:36;5.28;;;1.70;;
34805;SDS011;65084;42.196;25.326;2023-04-25T13:11:05;3.08;;;1.73;;
34805;SDS011;65084;42.196;25.326;2023-04-25T13:13:33;4.68;;;1.70;;
34805;SDS011;65084;42.196;25.326;2023-04-25T13:16:00;2.00;;;1.85;;
34805;SDS011;65084;42.196;25.326;2023-04-25T13:18:28;1.70;;;1.50;;
34805;SDS011;65084;42.196;25.326;2023-04-25T13:20:55;1.95;;;1.80;;
34805;SDS011;65084;42.196;25.326;2023-04-25T13:23:22;3.92;;;2.00;;
34805;SDS011;65084;42.196;25.326;2023-04-25T13:25:50;1.70;;;1.60;;
34805;SDS011;65084;42.196;25.326;2023-04-25T13:28:18;2.95;;;1.70;;
34805;SDS011;65084;42.196;25.326;2023-04-25T13:30:46;2.15;;;1.65;;
34805;SDS011;65084;42.196;25.326;2023-04-25T13:33:14;1.50;;;1.40;;
34805;SDS011;65084;42.196;25.326;2023-04-25T13:35:41;3.47;;;1.40;;
34805;SDS011;65084;42.196;25.326;2023-04-25T13:38:11;1.40;;;1.30;;
34805;SDS011;65084;42.196;25.326;2023-04-25T13:40:39;1.60;;;1.50;;
34805;SDS011;65084;42.196;25.326;2023-04-25T13:43:06;11.30;;;1.83;;
34805;SDS011;65084;42.196;25.326;2023-04-25T13:45:35;1.77;;;1.38;;
34805;SDS011;65084;42.196;25.326;2023-04-25T13:48:02;4.53;;;1.70;;
34805;SDS011;65084;42.196;25.326;2023-04-25T13:50:29;1.42;;;1.33;;
34805;SDS011;65084;42.196;25.326;2023-04-25T13:52:57;2.20;;;1.40;;
34805;SDS011;65084;42.196;25.326;2023-04-25T13:55:24;2.00;;;1.90;;
34805;SDS011;65084;42.196;25.326;2023-04-25T13:57:51;3.70;;;1.63;;
34805;SDS011;65084;42.196;25.326;2023-04-25T14:00:19;1.92;;;1.77;;
34805;SDS011;65084;42.196;25.326;2023-04-25T14:02:47;3.90;;;1.65;;
34805;SDS011;65084;42.196;25.326;2023-04-25T14:05:15;1.50;;;1.40;;
34805;SDS011;65084;42.196;25.326;2023-04-25T14:07:42;6.05;;;1.90;;
34805;SDS011;65084;42.196;25.326;2023-04-25T14:10:10;3.15;;;1.75;;
34805;SDS011;65084;42.196;25.326;2023-04-25T14:12:37;1.50;;;1.40;;
34805;SDS011;65084;42.196;25.326;2023-04-25T14:15:05;1.67;;;1.58;;
34805;SDS011;65084;42.196;25.326;2023-04-25T14:17:32;3.13;;;1.50;;
34805;SDS011;65084;42.196;25.326;2023-04-25T14:20:01;7.05;;;2.10;;
34805;SDS011;65084;42.196;25.326;2023-04-25T14:22:30;4.28;;;2.13;;
34805;SDS011;65084;42.196;25.326;2023-04-25T14:24:58;1.90;;;1.80;;
34805;SDS011;65084;42.196;25.326;2023-04-25T14:27:25;3.53;;;1.60;;
34805;SDS011;65084;42.196;25.326;2023-04-25T14:29:53;5.78;;;1.77;;
34805;SDS011;65084;42.196;25.326;2023-04-25T14:32:20;5.70;;;2.33;;
34805;SDS011;65084;42.196;25.326;2023-04-25T14:34:47;1.60;;;1.30;;
34805;SDS011;65084;42.196;25.326;2023-04-25T14:37:16;1.50;;;1.40;;